Alger, Washington
Current Conditions -  °F | °C
As of 10:15 PM on Tuesday 25 Nov 2014 (Local Time) from KBVS Reporting Station
Overcast Overcast  
Wind Chill: 45°   Ceiling: 400
Heat Index: 45°   Visibility: 10mi
Dew Point: 45°   Wind: 0mph
Humidity: 100%   Direction: NA
Pressure: 30.15"   Gusts: NA
Location:  48.4982°N, 122.346°W
Report Text: KBVS 260615Z AUTO 00000KT 10SM OVC004 07/07 A3015 RMK A01 P000
Loading
Personal Weather Stations






























Interactive Weather Map New forecast layout! Learn more

10-Day Weather Forecast

Advertisements
Track Severe Weather on mobile